createdAt,value
2019-02-14T00:00:27.054Z,64.10
2019-02-14T00:01:30.573Z,64.29
2019-02-14T00:02:34.069Z,64.30
2019-02-14T00:03:37.573Z,64.41
2019-02-14T00:04:41.006Z,64.37
2019-02-14T00:05:44.466Z,64.35
2019-02-14T00:06:47.898Z,64.49
2019-02-14T00:07:51.397Z,64.58
2019-02-14T00:08:54.828Z,64.61
2019-02-14T00:09:58.431Z,64.49
2019-02-14T00:11:01.899Z,64.31
2019-02-14T00:12:05.394Z,64.27
2019-02-14T00:13:08.894Z,64.70
2019-02-14T00:14:12.338Z,64.88
2019-02-14T00:15:15.833Z,64.71
2019-02-14T00:16:19.315Z,65.05
2019-02-14T00:17:22.752Z,65.31
2019-02-14T00:18:26.248Z,65.26
2019-02-14T00:19:29.683Z,65.51
2019-02-14T00:20:33.200Z,65.81
2019-02-14T00:21:36.682Z,66.05
2019-02-14T00:22:40.211Z,65.84
2019-02-14T00:23:43.627Z,65.61
2019-02-14T00:24:47.065Z,65.66
2019-02-14T00:25:50.493Z,65.53
2019-02-14T00:26:53.949Z,65.49
2019-02-14T00:27:57.386Z,65.41
2019-02-14T00:29:00.826Z,65.25
2019-02-14T00:30:05.476Z,65.15
2019-02-14T00:31:08.899Z,65.06
2019-02-14T00:32:12.414Z,65.13
2019-02-14T00:33:15.852Z,65.20
2019-02-14T00:34:19.313Z,65.33
2019-02-14T00:35:25.053Z,65.32
2019-02-14T00:36:27.920Z,65.25
2019-02-14T00:37:31.368Z,65.22
2019-02-14T00:38:34.792Z,65.09
2019-02-14T00:39:38.227Z,65.04
2019-02-14T00:40:41.655Z,64.99
2019-02-14T00:41:45.119Z,65.04
2019-02-14T00:42:48.584Z,64.99
2019-02-14T00:43:52.023Z,65.08
2019-02-14T00:44:55.532Z,65.05
2019-02-14T00:45:59.041Z,64.97
2019-02-14T00:47:02.570Z,64.98
2019-02-14T00:48:06.012Z,64.97
2019-02-14T00:49:09.441Z,64.92
2019-02-14T00:50:12.941Z,65.09
2019-02-14T00:51:16.375Z,65.12
2019-02-14T00:52:19.809Z,65.07
2019-02-14T00:53:23.266Z,65.08
2019-02-14T00:54:26.707Z,65.00
2019-02-14T00:55:30.142Z,64.95
2019-02-14T00:56:33.573Z,64.90
2019-02-14T00:57:37.032Z,64.85
2019-02-14T00:58:40.532Z,64.76
2019-02-14T00:59:43.962Z,64.86
2019-02-14T01:00:47.471Z,64.93
2019-02-14T01:01:50.936Z,65.07
2019-02-14T01:02:54.386Z,65.17
2019-02-14T01:03:57.819Z,65.18
2019-02-14T01:05:01.264Z,65.24
2019-02-14T01:06:04.683Z,65.17
2019-02-14T01:07:08.581Z,65.24
2019-02-14T01:08:12.038Z,65.37
2019-02-14T01:09:15.478Z,65.54
2019-02-14T01:10:18.975Z,65.60
2019-02-14T01:11:22.418Z,65.64
2019-02-14T01:12:25.921Z,65.63
2019-02-14T01:13:29.374Z,65.65
2019-02-14T01:14:32.809Z,65.68
2019-02-14T01:15:36.525Z,65.67
2019-02-14T01:16:40.036Z,65.55
2019-02-14T01:17:43.540Z,65.68
2019-02-14T01:18:46.994Z,65.83
2019-02-14T01:19:50.443Z,66.01
2019-02-14T01:20:53.875Z,66.17
2019-02-14T01:21:57.369Z,66.22
2019-02-14T01:23:00.801Z,66.29
2019-02-14T01:24:04.331Z,66.15
2019-02-14T01:25:07.900Z,66.27
2019-02-14T01:26:11.324Z,66.25
2019-02-14T01:27:14.751Z,66.19
2019-02-14T01:28:18.246Z,66.12
2019-02-14T01:29:21.870Z,66.12
2019-02-14T01:30:25.300Z,66.26
2019-02-14T01:31:28.731Z,66.41
2019-02-14T01:32:32.162Z,66.41
2019-02-14T01:33:35.670Z,66.52
2019-02-14T01:34:39.197Z,66.47
2019-02-14T01:35:42.626Z,66.22
2019-02-14T01:36:46.131Z,66.30
2019-02-14T01:37:49.561Z,66.21
2019-02-14T01:38:53.060Z,66.14
2019-02-14T01:39:56.509Z,66.59
2019-02-14T01:40:59.932Z,66.60
2019-02-14T01:42:03.371Z,66.78
2019-02-14T01:43:06.794Z,66.95
2019-02-14T01:44:10.220Z,67.04
2019-02-14T01:45:13.667Z,67.38
2019-02-14T01:46:17.104Z,67.55
2019-02-14T01:47:20.551Z,68.01
2019-02-14T01:48:23.985Z,68.00
2019-02-14T01:49:27.461Z,67.86
2019-02-14T01:50:31.065Z,67.87
2019-02-14T01:51:34.495Z,67.75
2019-02-14T01:52:37.923Z,67.51
2019-02-14T01:53:41.355Z,67.44
2019-02-14T01:54:45.019Z,67.39
2019-02-14T01:55:48.431Z,67.42
2019-02-14T01:56:51.947Z,67.66
2019-02-14T01:57:55.378Z,67.84
2019-02-14T01:58:58.812Z,67.83
2019-02-14T02:00:02.478Z,67.77
2019-02-14T02:01:06.014Z,68.07
2019-02-14T02:02:09.539Z,68.59
2019-02-14T02:03:12.975Z,68.75
2019-02-14T02:04:16.420Z,68.71
2019-02-14T02:05:19.862Z,68.48
2019-02-14T02:06:23.450Z,68.32
2019-02-14T02:07:26.990Z,68.04
2019-02-14T02:08:30.404Z,67.85
2019-02-14T02:09:33.919Z,67.77
2019-02-14T02:10:37.435Z,67.74
2019-02-14T02:11:40.941Z,67.79
2019-02-14T02:12:44.429Z,67.79
2019-02-14T02:13:47.929Z,67.79
2019-02-14T02:14:51.354Z,67.86
2019-02-14T02:15:54.792Z,67.72
2019-02-14T02:16:58.315Z,67.54
2019-02-14T02:18:01.812Z,67.33
2019-02-14T02:19:05.312Z,67.50
2019-02-14T02:20:10.180Z,67.53
2019-02-14T02:21:13.618Z,67.46
2019-02-14T02:22:17.141Z,67.46
2019-02-14T02:23:20.590Z,67.43
2019-02-14T02:24:24.026Z,67.40
2019-02-14T02:25:27.523Z,67.62
2019-02-14T02:26:30.968Z,67.91
2019-02-14T02:27:34.396Z,68.01
2019-02-14T02:28:37.832Z,68.07
2019-02-14T02:29:41.262Z,68.17
2019-02-14T02:30:44.690Z,68.18
2019-02-14T02:31:48.226Z,68.07
2019-02-14T02:32:51.746Z,68.12
2019-02-14T02:33:55.168Z,68.34
2019-02-14T02:34:58.617Z,68.38
2019-02-14T02:36:02.050Z,68.55
2019-02-14T02:37:05.510Z,68.53
2019-02-14T02:38:09.015Z,68.43
2019-02-14T02:39:12.440Z,68.32
2019-02-14T02:40:15.903Z,68.33
2019-02-14T02:41:19.347Z,68.06
2019-02-14T02:42:23.030Z,67.96
2019-02-14T02:43:26.504Z,67.89
2019-02-14T02:44:30.006Z,67.87
2019-02-14T02:45:33.443Z,67.75
2019-02-14T02:46:36.883Z,67.75
2019-02-14T02:47:40.482Z,67.74
2019-02-14T02:48:43.943Z,67.81
2019-02-14T02:49:47.362Z,68.01
2019-02-14T02:50:50.873Z,68.03
2019-02-14T02:51:54.299Z,67.93
2019-02-14T02:52:57.828Z,67.87
2019-02-14T02:54:01.287Z,67.78
2019-02-14T02:55:06.159Z,67.70
2019-02-14T02:56:09.611Z,67.57
2019-02-14T02:57:13.046Z,67.62
2019-02-14T02:58:16.577Z,67.61
2019-02-14T02:59:20.028Z,67.48
2019-02-14T03:00:23.527Z,67.42
2019-02-14T03:01:27.098Z,67.24
2019-02-14T03:02:30.541Z,67.36
2019-02-14T03:03:33.992Z,67.57
2019-02-14T03:04:37.439Z,67.51
2019-02-14T03:05:40.882Z,67.56
2019-02-14T03:06:44.383Z,67.58
2019-02-14T03:07:47.877Z,67.66
2019-02-14T03:08:51.403Z,67.67
2019-02-14T03:09:54.837Z,67.54
2019-02-14T03:10:58.275Z,67.43
2019-02-14T03:12:01.779Z,67.44
2019-02-14T03:13:05.207Z,67.51
2019-02-14T03:14:08.683Z,67.53
2019-02-14T03:15:14.170Z,67.48
2019-02-14T03:16:17.557Z,67.49
2019-02-14T03:17:21.000Z,67.59
2019-02-14T03:18:24.422Z,67.50
2019-02-14T03:19:27.874Z,67.37
2019-02-14T03:20:31.311Z,67.44
2019-02-14T03:21:34.745Z,67.57
2019-02-14T03:22:38.191Z,67.56
2019-02-14T03:23:41.622Z,67.58
2019-02-14T03:24:45.066Z,67.71
2019-02-14T03:25:48.520Z,67.65
2019-02-14T03:26:51.954Z,67.71
2019-02-14T03:27:55.385Z,68.02
2019-02-14T03:28:58.861Z,68.15
2019-02-14T03:30:02.271Z,68.43
2019-02-14T03:31:05.723Z,68.67
2019-02-14T03:32:09.174Z,68.66
2019-02-14T03:33:12.594Z,68.25
2019-02-14T03:34:16.026Z,67.83
2019-02-14T03:35:19.473Z,67.63
2019-02-14T03:36:22.900Z,67.45
2019-02-14T03:37:26.403Z,67.38
2019-02-14T03:38:29.831Z,67.35
2019-02-14T03:39:33.278Z,67.31
2019-02-14T03:40:36.716Z,67.22
2019-02-14T03:41:40.244Z,67.16
2019-02-14T03:42:43.676Z,67.18
2019-02-14T03:43:47.121Z,67.29
2019-02-14T03:44:50.552Z,67.41
2019-02-14T03:45:54.005Z,67.49
2019-02-14T03:46:57.448Z,67.54
2019-02-14T03:48:00.950Z,67.36
2019-02-14T03:49:04.470Z,67.47
2019-02-14T03:50:10.344Z,67.57
2019-02-14T03:51:13.791Z,67.67
2019-02-14T03:52:17.296Z,67.63
2019-02-14T03:53:20.808Z,67.50
2019-02-14T03:54:24.247Z,67.47
2019-02-14T03:55:27.681Z,67.42
2019-02-14T03:56:31.145Z,67.50
2019-02-14T03:57:34.591Z,67.53
2019-02-14T03:58:38.101Z,67.39
2019-02-14T03:59:41.586Z,67.49
2019-02-14T04:00:45.021Z,67.70
2019-02-14T04:01:48.467Z,67.89
2019-02-14T04:02:51.982Z,67.87
2019-02-14T04:03:55.408Z,67.83
2019-02-14T04:04:58.842Z,68.13
2019-02-14T04:06:02.301Z,68.19
2019-02-14T04:07:05.744Z,68.29
2019-02-14T04:08:09.178Z,68.60
2019-02-14T04:09:12.601Z,68.86
2019-02-14T04:10:16.023Z,68.87
2019-02-14T04:11:19.449Z,68.84
2019-02-14T04:12:22.898Z,68.76
2019-02-14T04:13:26.326Z,68.76
2019-02-14T04:14:29.756Z,68.81
2019-02-14T04:15:33.331Z,68.66
2019-02-14T04:16:36.756Z,68.51
2019-02-14T04:17:40.366Z,68.60
2019-02-14T04:18:43.815Z,68.79
2019-02-14T04:19:47.325Z,68.78
2019-02-14T04:20:50.764Z,68.98
2019-02-14T04:21:54.261Z,69.06
2019-02-14T04:22:57.722Z,69.01
2019-02-14T04:24:01.148Z,69.15
2019-02-14T04:25:06.019Z,69.06
2019-02-14T04:26:09.467Z,69.06
2019-02-14T04:27:12.963Z,69.27
2019-02-14T04:28:16.411Z,69.81
2019-02-14T04:29:19.853Z,70.17
2019-02-14T04:30:23.309Z,70.42
2019-02-14T04:31:26.739Z,70.60
2019-02-14T04:32:30.168Z,70.62
2019-02-14T04:33:33.615Z,70.64
2019-02-14T04:34:37.073Z,70.43
2019-02-14T04:35:40.520Z,70.23
2019-02-14T04:36:43.946Z,70.71
2019-02-14T04:37:47.373Z,70.54
2019-02-14T04:38:50.828Z,70.51
2019-02-14T04:39:54.263Z,70.85
2019-02-14T04:40:57.689Z,70.77
2019-02-14T04:42:01.105Z,70.70
2019-02-14T04:43:04.532Z,70.57
2019-02-14T04:44:07.981Z,70.48
2019-02-14T04:45:12.775Z,70.55
2019-02-14T04:46:16.200Z,70.68
2019-02-14T04:47:19.630Z,70.40
2019-02-14T04:48:23.049Z,70.19
2019-02-14T04:49:26.512Z,70.17
2019-02-14T04:50:29.972Z,70.23
2019-02-14T04:51:33.412Z,70.22
2019-02-14T04:52:36.842Z,70.03
2019-02-14T04:53:40.305Z,69.91
2019-02-14T04:54:43.773Z,69.80
2019-02-14T04:55:47.286Z,69.63
2019-02-14T04:56:50.719Z,69.51
2019-02-14T04:57:54.163Z,69.47
2019-02-14T04:58:57.596Z,69.03
2019-02-14T05:00:01.038Z,69.21
2019-02-14T05:01:04.536Z,69.25
2019-02-14T05:02:07.962Z,68.90
2019-02-14T05:03:11.399Z,68.41
2019-02-14T05:04:14.837Z,68.21
2019-02-14T05:05:18.272Z,68.30
2019-02-14T05:06:21.699Z,68.60
2019-02-14T05:07:25.121Z,68.81
2019-02-14T05:08:28.546Z,68.74
2019-02-14T05:09:31.970Z,68.56
2019-02-14T05:10:35.417Z,68.59
2019-02-14T05:11:38.876Z,68.73
2019-02-14T05:12:42.299Z,69.10
2019-02-14T05:13:45.728Z,69.60
2019-02-14T05:14:49.165Z,69.93
2019-02-14T05:15:52.611Z,69.95
2019-02-14T05:16:56.041Z,69.63
2019-02-14T05:17:59.467Z,69.43
2019-02-14T05:19:02.896Z,69.53
2019-02-14T05:20:10.909Z,69.50
2019-02-14T05:21:14.352Z,69.29
2019-02-14T05:22:17.802Z,69.14
2019-02-14T05:23:21.233Z,69.39
2019-02-14T05:24:24.726Z,68.96
2019-02-14T05:25:28.218Z,69.02
2019-02-14T05:26:31.687Z,69.04
2019-02-14T05:27:35.127Z,68.98
2019-02-14T05:28:38.555Z,69.24
2019-02-14T05:29:41.988Z,69.24
2019-02-14T05:30:45.564Z,68.98
2019-02-14T05:31:49.015Z,69.06
2019-02-14T05:32:52.451Z,68.99
2019-02-14T05:33:55.894Z,68.95
2019-02-14T05:34:59.324Z,68.87
2019-02-14T05:36:02.766Z,68.79
2019-02-14T05:37:06.233Z,68.83
2019-02-14T05:38:09.660Z,68.79
2019-02-14T05:39:13.103Z,68.64
2019-02-14T05:40:16.539Z,68.69
2019-02-14T05:41:19.977Z,68.79
2019-02-14T05:42:25.109Z,68.66
2019-02-14T05:43:28.667Z,68.68
2019-02-14T05:44:32.093Z,68.58
2019-02-14T05:45:35.513Z,68.54
2019-02-14T05:46:38.926Z,68.51
2019-02-14T05:47:42.719Z,68.46
2019-02-14T05:48:46.146Z,68.58
2019-02-14T05:49:49.580Z,68.75
2019-02-14T05:50:52.995Z,68.87
2019-02-14T05:51:56.423Z,68.89
2019-02-14T05:52:59.870Z,68.83
2019-02-14T05:54:03.394Z,68.80
2019-02-14T05:55:09.363Z,68.85
2019-02-14T05:56:12.857Z,68.88
2019-02-14T05:57:16.278Z,68.75
2019-02-14T05:58:19.725Z,68.76
2019-02-14T05:59:23.157Z,68.66
2019-02-14T06:00:26.588Z,68.62
2019-02-14T06:01:30.111Z,68.60
2019-02-14T06:02:33.561Z,68.85
2019-02-14T06:03:37.055Z,68.98
2019-02-14T06:04:40.494Z,68.89
2019-02-14T06:05:43.926Z,68.82
2019-02-14T06:06:47.360Z,68.81
2019-02-14T06:07:50.859Z,68.88
2019-02-14T06:08:54.347Z,69.11
2019-02-14T06:09:57.785Z,68.99
2019-02-14T06:11:01.225Z,68.92
2019-02-14T06:12:04.657Z,69.14
2019-02-14T06:13:08.108Z,69.41
2019-02-14T06:14:11.538Z,69.25
2019-02-14T06:15:15.203Z,69.22
2019-02-14T06:16:18.633Z,69.30
2019-02-14T06:17:22.060Z,69.36
2019-02-14T06:18:25.504Z,69.15
2019-02-14T06:19:28.962Z,69.10
2019-02-14T06:20:32.417Z,69.25
2019-02-14T06:21:35.849Z,69.52
2019-02-14T06:22:39.353Z,69.56
2019-02-14T06:23:42.794Z,69.66
2019-02-14T06:24:46.252Z,69.93
2019-02-14T06:25:49.688Z,70.18
2019-02-14T06:26:53.121Z,70.44
2019-02-14T06:27:56.618Z,70.51
2019-02-14T06:29:00.061Z,70.53
2019-02-14T06:30:04.056Z,70.39
2019-02-14T06:31:07.543Z,70.14
2019-02-14T06:32:11.057Z,69.86
2019-02-14T06:33:14.492Z,69.73
2019-02-14T06:34:17.945Z,69.76
2019-02-14T06:35:21.525Z,69.64
2019-02-14T06:36:24.971Z,69.52
2019-02-14T06:37:28.401Z,69.46
2019-02-14T06:38:31.899Z,69.46
2019-02-14T06:39:35.378Z,69.19
2019-02-14T06:40:38.807Z,69.18
2019-02-14T06:41:42.250Z,69.18
2019-02-14T06:42:45.693Z,69.22
2019-02-14T06:43:49.112Z,69.18
2019-02-14T06:44:52.567Z,69.07
2019-02-14T06:45:56.017Z,69.04
2019-02-14T06:46:59.525Z,68.92
2019-02-14T06:48:02.955Z,68.88
2019-02-14T06:49:06.380Z,69.07
2019-02-14T06:50:10.341Z,69.25
2019-02-14T06:51:13.856Z,69.27
2019-02-14T06:52:17.302Z,69.31
2019-02-14T06:53:20.816Z,69.20
2019-02-14T06:54:24.257Z,69.18
2019-02-14T06:55:27.793Z,69.05
2019-02-14T06:56:31.254Z,68.89
2019-02-14T06:57:34.690Z,68.89
2019-02-14T06:58:38.128Z,68.79
2019-02-14T06:59:41.602Z,68.82
2019-02-14T07:00:45.037Z,68.74
2019-02-14T07:01:48.487Z,68.69
2019-02-14T07:02:51.899Z,68.58
2019-02-14T07:03:55.329Z,68.45
2019-02-14T07:04:58.756Z,68.47
2019-02-14T07:06:02.287Z,68.48
2019-02-14T07:07:05.714Z,68.37
2019-02-14T07:08:09.146Z,68.37
2019-02-14T07:09:12.569Z,68.46
2019-02-14T07:10:16.004Z,68.59
2019-02-14T07:11:19.469Z,68.59
2019-02-14T07:12:22.911Z,68.58
2019-02-14T07:13:26.414Z,68.73
2019-02-14T07:14:29.859Z,68.72
2019-02-14T07:15:33.306Z,69.12
2019-02-14T07:16:36.743Z,69.08
2019-02-14T07:17:40.198Z,69.12
2019-02-14T07:18:43.646Z,69.05
2019-02-14T07:19:47.180Z,69.04
2019-02-14T07:20:50.611Z,69.13
2019-02-14T07:21:54.063Z,69.03
2019-02-14T07:22:57.500Z,69.04
2019-02-14T07:24:00.946Z,68.93
2019-02-14T07:25:05.831Z,68.92
2019-02-14T07:26:09.259Z,68.88
2019-02-14T07:27:12.744Z,68.91
2019-02-14T07:28:16.170Z,68.98
2019-02-14T07:29:19.599Z,69.08
2019-02-14T07:30:25.126Z,69.17
2019-02-14T07:31:28.587Z,69.14
2019-02-14T07:32:32.039Z,69.04
2019-02-14T07:33:35.493Z,68.81
2019-02-14T07:34:38.926Z,68.81
2019-02-14T07:35:42.359Z,68.82
2019-02-14T07:36:45.792Z,68.76
2019-02-14T07:37:49.266Z,68.63
2019-02-14T07:38:52.830Z,68.62
2019-02-14T07:39:56.282Z,68.85
2019-02-14T07:40:59.701Z,68.92
2019-02-14T07:42:03.132Z,68.66
2019-02-14T07:43:06.645Z,68.59
2019-02-14T07:44:10.167Z,68.62
2019-02-14T07:45:15.350Z,68.58
2019-02-14T07:46:22.695Z,68.47
2019-02-14T07:47:23.932Z,68.63
2019-02-14T07:48:27.397Z,68.76
2019-02-14T07:49:30.837Z,68.80
2019-02-14T07:50:34.330Z,68.88
2019-02-14T07:51:37.760Z,68.72
2019-02-14T07:52:41.264Z,68.57
2019-02-14T07:53:44.706Z,68.53
2019-02-14T07:54:48.140Z,68.70
2019-02-14T07:55:51.578Z,68.80
2019-02-14T07:56:55.029Z,68.96
2019-02-14T07:57:58.460Z,68.84
2019-02-14T07:59:01.898Z,68.70
2019-02-14T08:00:08.804Z,68.48
2019-02-14T08:01:12.311Z,68.53
2019-02-14T08:02:15.740Z,68.53
2019-02-14T08:03:19.238Z,68.52
2019-02-14T08:04:22.689Z,68.56
2019-02-14T08:05:26.202Z,68.63
2019-02-14T08:06:29.628Z,68.67
2019-02-14T08:07:35.938Z,68.83
2019-02-14T08:08:38.220Z,68.96
2019-02-14T08:09:41.747Z,69.07
2019-02-14T08:10:45.222Z,69.04
2019-02-14T08:11:48.727Z,68.91
2019-02-14T08:12:52.156Z,68.83
2019-02-14T08:13:55.582Z,68.66
2019-02-14T08:14:59.041Z,68.64
2019-02-14T08:16:02.599Z,68.62
2019-02-14T08:17:06.041Z,68.65
2019-02-14T08:18:09.539Z,68.60
2019-02-14T08:19:12.967Z,68.53
2019-02-14T08:20:20.673Z,68.43
2019-02-14T08:21:24.118Z,68.22
2019-02-14T08:22:27.621Z,68.33
2019-02-14T08:23:31.061Z,68.26
2019-02-14T08:24:34.493Z,68.08
2019-02-14T08:25:37.960Z,67.90
2019-02-14T08:26:41.421Z,67.79
2019-02-14T08:27:44.857Z,67.66
2019-02-14T08:28:48.287Z,67.75
2019-02-14T08:29:51.877Z,67.82
2019-02-14T08:30:55.352Z,67.67
2019-02-14T08:31:58.835Z,67.63
2019-02-14T08:33:02.277Z,67.66
2019-02-14T08:34:05.708Z,67.50
2019-02-14T08:35:09.210Z,67.28
2019-02-14T08:36:12.658Z,67.13
2019-02-14T08:37:16.131Z,67.07
2019-02-14T08:38:19.565Z,67.00
2019-02-14T08:39:23.289Z,66.77
2019-02-14T08:40:29.530Z,66.64
2019-02-14T08:41:32.971Z,66.74
2019-02-14T08:42:36.432Z,66.57
2019-02-14T08:43:39.872Z,66.48
2019-02-14T08:44:43.305Z,66.42
2019-02-14T08:45:46.753Z,66.07
2019-02-14T08:46:50.323Z,65.91
2019-02-14T08:47:53.721Z,65.88
2019-02-14T08:48:57.160Z,65.76
2019-02-14T08:50:00.580Z,65.31
2019-02-14T08:51:04.030Z,65.29
2019-02-14T08:52:07.486Z,65.24
2019-02-14T08:53:10.935Z,65.12
2019-02-14T08:54:14.360Z,64.89
2019-02-14T08:55:17.792Z,64.69
2019-02-14T08:56:21.223Z,64.59
2019-02-14T08:57:24.755Z,64.69
2019-02-14T08:58:28.200Z,64.65
2019-02-14T08:59:31.706Z,64.57
2019-02-14T09:00:35.371Z,64.49
2019-02-14T09:01:38.850Z,64.38
2019-02-14T09:02:42.514Z,64.03
2019-02-14T09:03:45.963Z,64.08
2019-02-14T09:04:49.392Z,64.34
2019-02-14T09:05:52.851Z,64.11
2019-02-14T09:06:56.266Z,64.08
2019-02-14T09:07:59.789Z,64.01
2019-02-14T09:09:04.502Z,63.70
2019-02-14T09:10:10.981Z,63.59
2019-02-14T09:11:14.485Z,64.04
2019-02-14T09:12:18.004Z,64.35
2019-02-14T09:13:21.483Z,64.05
2019-02-14T09:14:24.942Z,63.96
2019-02-14T09:15:28.506Z,63.96
2019-02-14T09:16:31.958Z,63.68
2019-02-14T09:17:35.555Z,63.60
2019-02-14T09:18:39.023Z,63.79
2019-02-14T09:19:42.479Z,63.60
2019-02-14T09:20:46.030Z,63.36
2019-02-14T09:21:49.484Z,63.18
2019-02-14T09:22:52.984Z,63.16
2019-02-14T09:23:56.431Z,62.96
2019-02-14T09:24:59.954Z,62.90
2019-02-14T09:26:03.544Z,62.89
2019-02-14T09:27:06.968Z,62.67
2019-02-14T09:28:10.415Z,62.45
2019-02-14T09:29:14.471Z,62.04
2019-02-14T09:30:17.966Z,62.06
2019-02-14T09:31:21.473Z,62.05
2019-02-14T09:32:25.869Z,61.93
2019-02-14T09:33:29.315Z,61.56
2019-02-14T09:34:32.779Z,61.54
2019-02-14T09:35:36.230Z,61.78
2019-02-14T09:36:39.739Z,61.50
2019-02-14T09:37:44.871Z,61.27
2019-02-14T09:38:48.315Z,61.10
2019-02-14T09:39:51.776Z,60.98
2019-02-14T09:40:55.292Z,60.96
2019-02-14T09:41:58.726Z,60.91
2019-02-14T09:43:02.165Z,60.64
2019-02-14T09:44:05.722Z,60.71
2019-02-14T09:45:11.510Z,60.40
2019-02-14T09:46:14.943Z,59.75
2019-02-14T09:47:18.490Z,58.72
2019-02-14T09:48:21.920Z,59.35
2019-02-14T09:49:25.350Z,59.36
2019-02-14T09:50:28.809Z,59.20
2019-02-14T09:51:32.240Z,59.14
2019-02-14T09:52:35.689Z,58.98
2019-02-14T09:53:39.137Z,58.40
2019-02-14T09:54:42.554Z,58.69
2019-02-14T09:55:46.082Z,58.87
2019-02-14T09:56:49.523Z,59.00
2019-02-14T09:57:52.955Z,58.82
2019-02-14T09:58:56.473Z,58.57
2019-02-14T09:59:59.904Z,58.31
2019-02-14T10:01:03.365Z,58.53
2019-02-14T10:02:06.935Z,58.14
2019-02-14T10:03:10.372Z,57.81
2019-02-14T10:04:13.879Z,57.79
2019-02-14T10:05:17.391Z,57.68
2019-02-14T10:06:20.898Z,57.61
2019-02-14T10:07:24.442Z,57.37
2019-02-14T10:08:27.956Z,57.36
2019-02-14T10:09:31.371Z,57.27
2019-02-14T10:10:34.822Z,56.92
2019-02-14T10:11:38.271Z,56.64
2019-02-14T10:12:41.732Z,55.42
2019-02-14T10:13:45.233Z,55.88
2019-02-14T10:14:48.757Z,55.61
2019-02-14T10:15:52.198Z,55.12
2019-02-14T10:16:55.668Z,55.25
2019-02-14T10:17:59.131Z,54.09
2019-02-14T10:19:02.553Z,52.75
2019-02-14T10:20:12.193Z,52.53
2019-02-14T10:21:15.761Z,53.12
2019-02-14T10:22:19.286Z,52.38
2019-02-14T10:23:22.733Z,52.29
2019-02-14T10:24:26.165Z,53.32
2019-02-14T10:25:29.601Z,52.33
2019-02-14T10:26:33.027Z,52.66
2019-02-14T10:27:36.481Z,52.44
2019-02-14T10:28:39.912Z,51.59
2019-02-14T10:29:43.346Z,52.47
2019-02-14T10:30:46.769Z,52.85
2019-02-14T10:31:50.191Z,53.18
2019-02-14T10:32:53.709Z,52.17
2019-02-14T10:33:57.133Z,51.72
2019-02-14T10:35:00.568Z,52.13
2019-02-14T10:36:04.562Z,52.17
2019-02-14T10:37:08.145Z,51.42
2019-02-14T10:38:11.585Z,51.94
2019-02-14T10:39:15.100Z,51.92
2019-02-14T10:40:18.534Z,51.83
2019-02-14T10:41:21.982Z,51.00
2019-02-14T10:42:25.410Z,51.26
2019-02-14T10:43:28.894Z,50.84
2019-02-14T10:44:32.415Z,51.58
2019-02-14T10:45:35.917Z,51.58
2019-02-14T10:46:39.419Z,51.13
2019-02-14T10:47:43.018Z,51.17
2019-02-14T10:48:46.468Z,50.77
2019-02-14T10:49:49.972Z,50.78
2019-02-14T10:50:53.435Z,50.02
2019-02-14T10:51:56.896Z,49.60
2019-02-14T10:53:00.407Z,49.28
2019-02-14T10:54:03.885Z,49.92
2019-02-14T10:55:09.939Z,50.01
2019-02-14T10:56:13.441Z,48.76
2019-02-14T10:57:16.946Z,49.86
2019-02-14T10:58:20.414Z,50.14
2019-02-14T10:59:23.863Z,50.00
2019-02-14T11:00:27.459Z,50.19
2019-02-14T11:01:30.977Z,50.09
2019-02-14T11:02:34.407Z,49.47
2019-02-14T11:03:37.900Z,49.21
2019-02-14T11:04:41.431Z,49.15
2019-02-14T11:05:44.892Z,48.94
2019-02-14T11:06:48.443Z,49.24
2019-02-14T11:07:51.967Z,49.15
2019-02-14T11:08:55.396Z,49.14
2019-02-14T11:09:58.908Z,48.75
2019-02-14T11:11:02.412Z,48.76
2019-02-14T11:12:06.006Z,48.68
2019-02-14T11:13:09.455Z,48.44
2019-02-14T11:14:12.939Z,48.49
2019-02-14T11:15:19.053Z,48.12
2019-02-14T11:16:22.505Z,48.20
2019-02-14T11:17:25.945Z,48.01
2019-02-14T11:18:29.528Z,48.18
2019-02-14T11:19:32.898Z,47.72
2019-02-14T11:20:36.523Z,48.04
2019-02-14T11:21:40.026Z,47.88
2019-02-14T11:22:43.583Z,47.21
2019-02-14T11:23:47.016Z,46.51
2019-02-14T11:24:50.442Z,46.30
2019-02-14T11:25:53.885Z,46.25
2019-02-14T11:26:57.402Z,46.04
2019-02-14T11:28:00.975Z,46.10
2019-02-14T11:29:04.476Z,46.26
2019-02-14T11:30:11.244Z,46.65
2019-02-14T11:31:14.688Z,46.30
2019-02-14T11:32:18.143Z,45.88
2019-02-14T11:33:21.611Z,45.38
2019-02-14T11:34:25.043Z,45.25
2019-02-14T11:35:28.539Z,45.11
2019-02-14T11:36:32.177Z,44.81
2019-02-14T11:37:35.682Z,44.72
2019-02-14T11:38:40.814Z,44.55
2019-02-14T11:39:44.517Z,43.95
2019-02-14T11:40:48.021Z,42.97
2019-02-14T11:41:51.495Z,43.41
2019-02-14T11:42:54.956Z,43.23
2019-02-14T11:43:58.467Z,41.43
2019-02-14T11:45:01.891Z,41.43
2019-02-14T11:46:05.464Z,41.19
2019-02-14T11:47:08.909Z,40.93
2019-02-14T11:48:12.333Z,38.81
2019-02-14T11:49:15.769Z,38.88
2019-02-14T11:50:19.361Z,38.41
2019-02-14T11:51:22.803Z,38.36
2019-02-14T11:52:26.324Z,38.32
2019-02-14T11:53:29.778Z,38.15
2019-02-14T11:54:33.213Z,38.15
2019-02-14T11:55:37.647Z,37.53
2019-02-14T11:56:41.171Z,37.33
2019-02-14T11:57:44.620Z,36.26
2019-02-14T11:58:48.066Z,36.12
2019-02-14T11:59:51.503Z,35.28
2019-02-14T12:00:54.937Z,35.18
2019-02-14T12:01:58.396Z,35.81
2019-02-14T12:03:01.866Z,34.62
2019-02-14T12:04:05.375Z,35.07
2019-02-14T12:05:08.893Z,35.67
2019-02-14T12:06:17.553Z,34.90
2019-02-14T12:07:17.559Z,35.54
2019-02-14T12:08:21.033Z,35.80
2019-02-14T12:09:24.460Z,35.80
2019-02-14T12:10:27.902Z,35.89
2019-02-14T12:11:31.413Z,35.12
2019-02-14T12:12:34.985Z,35.44
2019-02-14T12:13:39.560Z,34.98
2019-02-14T12:14:43.054Z,34.94
2019-02-14T12:15:46.489Z,34.58
2019-02-14T12:16:49.937Z,34.67
2019-02-14T12:17:53.370Z,35.26
2019-02-14T12:18:56.893Z,34.96
2019-02-14T12:20:00.416Z,33.36
2019-02-14T12:21:03.804Z,33.13
2019-02-14T12:22:07.317Z,33.28
2019-02-14T12:23:10.753Z,31.61
2019-02-14T12:24:14.210Z,32.16
2019-02-14T12:25:28.704Z,31.98
2019-02-14T12:26:32.194Z,31.49
2019-02-14T12:27:35.693Z,31.20
2019-02-14T12:28:39.133Z,30.91
2019-02-14T12:29:42.588Z,31.45
2019-02-14T12:30:46.072Z,31.62
2019-02-14T12:31:49.647Z,31.84
2019-02-14T12:32:53.071Z,31.75
2019-02-14T12:33:56.517Z,32.09
2019-02-14T12:34:59.972Z,32.08
2019-02-14T12:36:03.411Z,31.39
2019-02-14T12:37:06.923Z,30.71
2019-02-14T12:38:10.349Z,30.57
2019-02-14T12:39:13.798Z,30.36
2019-02-14T12:40:17.319Z,29.30
2019-02-14T12:41:20.778Z,28.08
2019-02-14T12:42:24.209Z,26.48
2019-02-14T12:43:27.651Z,25.62
2019-02-14T12:44:31.103Z,23.92
2019-02-14T12:45:34.537Z,21.92
2019-02-14T12:46:38.054Z,20.84
2019-02-14T12:47:41.553Z,20.86
2019-02-14T12:48:44.987Z,20.98
2019-02-14T12:49:48.530Z,19.66
2019-02-14T12:50:51.975Z,19.26
2019-02-14T12:51:55.522Z,19.93
2019-02-14T12:52:59.036Z,19.96
2019-02-14T12:54:02.617Z,19.42
2019-02-14T12:55:06.905Z,20.70
2019-02-14T12:56:10.371Z,22.17
2019-02-14T12:57:13.808Z,22.42
2019-02-14T12:58:17.283Z,23.22
2019-02-14T12:59:20.711Z,24.07
2019-02-14T13:00:24.743Z,24.07
2019-02-14T13:01:28.199Z,24.08
2019-02-14T13:02:31.703Z,24.49
2019-02-14T13:03:35.134Z,24.84
2019-02-14T13:04:38.566Z,23.74
2019-02-14T13:05:42.020Z,23.56
2019-02-14T13:06:45.537Z,23.21
2019-02-14T13:07:49.066Z,23.35
2019-02-14T13:08:52.566Z,22.52
2019-02-14T13:09:56.008Z,21.29
2019-02-14T13:10:59.457Z,20.66
2019-02-14T13:12:02.905Z,19.65
2019-02-14T13:13:06.412Z,19.65
2019-02-14T13:14:09.850Z,17.64
2019-02-14T13:15:28.732Z,18.62
2019-02-14T13:16:32.185Z,18.02
2019-02-14T13:17:35.632Z,17.51
2019-02-14T13:18:39.111Z,17.08
2019-02-14T13:19:42.546Z,18.38
2019-02-14T13:20:46.068Z,18.15
2019-02-14T13:21:49.595Z,18.49
2019-02-14T13:22:53.037Z,18.13
2019-02-14T13:23:56.554Z,17.69
2019-02-14T13:25:00.053Z,17.58
2019-02-14T13:26:03.663Z,18.03
2019-02-14T13:27:07.095Z,18.33
2019-02-14T13:28:10.538Z,18.24
2019-02-14T13:29:13.969Z,17.75
2019-02-14T13:30:19.949Z,18.50
2019-02-14T13:31:31.540Z,19.13
2019-02-14T13:32:28.619Z,19.05
2019-02-14T13:33:32.058Z,19.86
2019-02-14T13:34:35.500Z,19.90
2019-02-14T13:35:38.934Z,19.87
2019-02-14T13:36:42.372Z,20.16
2019-02-14T13:37:45.822Z,19.10
2019-02-14T13:38:49.260Z,19.93